createdAt,value
2022-10-24T00:03:18.538Z,16.40
2022-10-24T00:08:24.253Z,16.44
2022-10-24T00:13:30.244Z,16.47
2022-10-24T00:18:36.371Z,16.46
2022-10-24T00:23:41.954Z,16.52
2022-10-24T00:28:48.112Z,16.54
2022-10-24T00:33:53.591Z,16.54
2022-10-24T00:38:59.039Z,16.57
2022-10-24T00:44:24.384Z,16.59
2022-10-24T00:49:35.522Z,16.60
2022-10-24T00:54:42.515Z,16.60
2022-10-24T00:59:50.882Z,16.61
2022-10-24T01:04:56.620Z,16.58
2022-10-24T01:10:08.137Z,16.63
2022-10-24T01:15:25.496Z,16.64
2022-10-24T01:20:43.079Z,16.64
2022-10-24T01:25:57.738Z,16.67
2022-10-24T01:31:09.038Z,16.63
2022-10-24T01:36:17.455Z,16.62
2022-10-24T01:41:26.277Z,16.66
2022-10-24T01:46:34.773Z,16.62
2022-10-24T01:51:42.700Z,16.66
2022-10-24T01:56:48.406Z,16.65
2022-10-24T02:01:56.494Z,16.67
2022-10-24T02:07:07.758Z,16.64
2022-10-24T02:12:15.989Z,16.58
2022-10-24T02:17:21.641Z,16.61
2022-10-24T02:22:32.854Z,16.60
2022-10-24T02:27:44.690Z,16.60
2022-10-24T02:32:56.282Z,16.57
2022-10-24T02:38:07.295Z,16.55
2022-10-24T02:43:14.698Z,16.54
2022-10-24T02:48:23.142Z,16.48
2022-10-24T02:53:29.225Z,16.38
2022-10-24T02:58:34.816Z,16.36
2022-10-24T03:03:40.274Z,16.35
2022-10-24T03:08:45.720Z,16.33
2022-10-24T03:13:51.717Z,16.29
2022-10-24T03:18:57.516Z,16.22
2022-10-24T03:24:03.145Z,16.22
2022-10-24T03:29:08.779Z,16.23
2022-10-24T03:34:14.398Z,16.21
2022-10-24T03:39:19.773Z,16.17
2022-10-24T03:44:25.355Z,16.10
2022-10-24T03:49:32.485Z,16.09
2022-10-24T03:54:38.968Z,16.07
2022-10-24T03:59:44.555Z,16.09
2022-10-24T04:04:50.096Z,16.04
2022-10-24T04:09:55.804Z,16.03
2022-10-24T04:15:04.120Z,15.99
2022-10-24T04:20:09.511Z,15.94
2022-10-24T04:25:15.128Z,15.91
2022-10-24T04:30:20.830Z,15.88
2022-10-24T04:35:26.442Z,15.84
2022-10-24T04:40:31.896Z,15.80
2022-10-24T04:45:37.343Z,15.85
2022-10-24T04:50:44.377Z,15.81
2022-10-24T04:55:50.501Z,15.77
2022-10-24T05:00:56.110Z,15.77
2022-10-24T05:06:01.645Z,15.78
2022-10-24T05:11:07.168Z,15.75
2022-10-24T05:16:12.793Z,15.72
2022-10-24T05:21:18.822Z,15.77
2022-10-24T05:26:27.101Z,15.75
2022-10-24T05:31:34.257Z,15.73
2022-10-24T05:36:39.791Z,15.74
2022-10-24T05:41:47.130Z,15.75
2022-10-24T05:46:53.107Z,15.78
2022-10-24T05:51:58.631Z,15.78
2022-10-24T05:57:04.178Z,15.80
2022-10-24T06:02:11.202Z,15.81
2022-10-24T06:07:16.868Z,15.91
2022-10-24T06:12:22.315Z,15.88
2022-10-24T06:17:28.149Z,15.89
2022-10-24T06:22:33.833Z,15.88
2022-10-24T06:27:39.783Z,15.93
2022-10-24T06:32:45.681Z,15.95
2022-10-24T06:37:51.963Z,15.97
2022-10-24T06:42:58.764Z,15.98
2022-10-24T06:48:04.330Z,16.02
2022-10-24T06:53:11.376Z,16.09
2022-10-24T06:58:16.938Z,16.07
2022-10-24T07:03:22.489Z,16.07
2022-10-24T07:08:28.060Z,16.12
2022-10-24T07:13:33.572Z,16.14
2022-10-24T07:18:39.412Z,16.18
2022-10-24T07:23:46.000Z,16.16
2022-10-24T07:28:54.906Z,16.14
2022-10-24T07:34:02.482Z,16.20
2022-10-24T07:39:08.419Z,16.23
2022-10-24T07:44:13.952Z,16.30
2022-10-24T07:49:19.337Z,16.42
2022-10-24T07:54:26.478Z,16.45
2022-10-24T07:59:41.679Z,16.52
2022-10-24T08:04:39.099Z,16.57
2022-10-24T08:09:47.188Z,16.68
2022-10-24T08:14:53.569Z,16.70
2022-10-24T08:19:59.090Z,16.84
2022-10-24T08:25:06.590Z,16.92
2022-10-24T08:30:12.663Z,16.93
2022-10-24T08:35:22.065Z,17.03
2022-10-24T08:40:27.672Z,17.04
2022-10-24T08:46:00.370Z,17.09
2022-10-24T08:51:23.957Z,17.18
2022-10-24T08:56:32.381Z,17.31
2022-10-24T09:01:43.591Z,17.39
2022-10-24T09:06:51.072Z,17.52
2022-10-24T09:11:59.589Z,18.34
2022-10-24T09:17:26.639Z,17.90
2022-10-24T09:22:35.076Z,17.87
2022-10-24T09:27:42.101Z,17.89
2022-10-24T09:32:48.127Z,17.95
2022-10-24T09:37:58.857Z,18.05
2022-10-24T09:43:09.991Z,18.17
2022-10-24T09:48:35.563Z,18.28
2022-10-24T09:53:44.170Z,18.40
2022-10-24T09:58:49.706Z,18.53
2022-10-24T10:04:09.983Z,18.64
2022-10-24T10:09:16.720Z,18.72
2022-10-24T10:14:26.913Z,18.86
2022-10-24T10:19:35.950Z,18.98
2022-10-24T10:24:46.258Z,19.14
2022-10-24T10:29:54.163Z,19.23
2022-10-24T10:35:02.620Z,19.35
2022-10-24T10:40:16.973Z,19.54
2022-10-24T10:45:34.691Z,19.70
2022-10-24T10:50:52.236Z,19.90
2022-10-24T10:56:10.739Z,19.96
2022-10-24T11:01:24.866Z,20.05
2022-10-24T11:06:45.709Z,20.10
2022-10-24T11:12:06.237Z,20.16
2022-10-24T11:17:17.934Z,20.16
2022-10-24T11:22:29.681Z,20.20
2022-10-24T11:27:38.099Z,21.07
2022-10-24T11:32:52.275Z,20.61
2022-10-24T11:38:21.736Z,20.55
2022-10-24T11:43:38.602Z,20.55
2022-10-24T11:48:59.422Z,20.55
2022-10-24T11:54:07.958Z,20.57
2022-10-24T11:59:25.732Z,20.62
2022-10-24T12:05:07.439Z,20.70
2022-10-24T12:10:47.641Z,20.69
2022-10-24T12:15:57.073Z,20.69
2022-10-24T12:21:05.577Z,20.64
2022-10-24T12:26:18.528Z,20.68
2022-10-24T12:31:33.169Z,20.69
2022-10-24T12:37:09.142Z,20.74
2022-10-24T12:42:26.724Z,20.83
2022-10-24T12:47:47.091Z,20.89
2022-10-24T12:52:55.537Z,20.99
2022-10-24T12:58:01.831Z,21.01
2022-10-24T13:03:44.119Z,21.05
2022-10-24T13:08:58.694Z,21.18
2022-10-24T13:14:23.945Z,21.30
2022-10-24T13:19:31.306Z,21.43
2022-10-24T13:24:40.587Z,21.38
2022-10-24T13:29:49.151Z,21.30
2022-10-24T13:34:56.716Z,21.24
2022-10-24T13:40:21.912Z,21.14
2022-10-24T13:45:47.141Z,21.14
2022-10-24T13:51:10.770Z,21.04
2022-10-24T13:56:17.751Z,20.97
2022-10-24T14:01:31.630Z,20.94
2022-10-24T14:06:37.697Z,20.91
2022-10-24T14:11:49.325Z,20.87
2022-10-24T14:17:28.969Z,20.84
2022-10-24T14:22:40.557Z,20.83
2022-10-24T14:27:46.849Z,20.72
2022-10-24T14:33:07.399Z,20.66
2022-10-24T14:38:15.826Z,20.60
2022-10-24T14:43:24.259Z,20.56
2022-10-24T14:48:30.755Z,20.49
2022-10-24T14:53:38.087Z,20.40
2022-10-24T14:58:43.807Z,20.36
2022-10-24T15:03:58.169Z,20.33
2022-10-24T15:09:13.075Z,20.32
2022-10-24T15:14:47.162Z,20.27
2022-10-24T15:19:55.600Z,20.21
2022-10-24T15:25:04.154Z,20.12
2022-10-24T15:30:23.283Z,20.04
2022-10-24T15:35:29.864Z,19.96
2022-10-24T15:40:36.366Z,19.85
2022-10-24T15:45:42.610Z,19.73
2022-10-24T15:50:48.475Z,19.63
2022-10-24T15:55:53.993Z,19.55
2022-10-24T16:01:00.787Z,19.47
2022-10-24T16:06:06.499Z,19.40
2022-10-24T16:11:13.514Z,19.33
2022-10-24T16:16:18.950Z,19.23
2022-10-24T16:21:24.987Z,19.13
2022-10-24T16:26:30.370Z,19.03
2022-10-24T16:31:36.284Z,18.97
2022-10-24T16:36:43.390Z,18.91
2022-10-24T16:41:48.881Z,18.83
2022-10-24T16:46:54.977Z,18.76
2022-10-24T16:52:00.552Z,18.74
2022-10-24T16:57:06.512Z,18.68
2022-10-24T17:02:14.388Z,18.60
2022-10-24T17:07:20.002Z,18.56
2022-10-24T17:12:27.313Z,18.49
2022-10-24T17:17:34.017Z,18.44
2022-10-24T17:22:41.581Z,18.37
2022-10-24T17:27:47.574Z,18.33
2022-10-24T17:32:54.064Z,18.30
2022-10-24T17:38:19.296Z,18.25
2022-10-24T17:43:27.419Z,18.22
2022-10-24T17:48:32.933Z,18.14
2022-10-24T17:53:38.549Z,18.12
2022-10-24T17:58:44.401Z,18.08
2022-10-24T18:03:49.986Z,18.03
2022-10-24T18:08:56.585Z,18.02
2022-10-24T18:14:02.055Z,17.98
2022-10-24T18:19:08.215Z,17.94
2022-10-24T18:24:14.787Z,17.90
2022-10-24T18:29:20.244Z,17.89
2022-10-24T18:34:25.845Z,17.85
2022-10-24T18:39:31.381Z,17.77
2022-10-24T18:44:37.915Z,17.75
2022-10-24T18:49:44.732Z,17.73
2022-10-24T18:54:57.740Z,17.71
2022-10-24T19:00:03.972Z,17.66
2022-10-24T19:05:19.130Z,17.62
2022-10-24T19:10:29.008Z,17.59
2022-10-24T19:15:35.463Z,17.54
2022-10-24T19:20:42.459Z,17.49
2022-10-24T19:25:48.090Z,17.48
2022-10-24T19:30:54.097Z,17.46
2022-10-24T19:36:01.040Z,17.42
2022-10-24T19:41:09.020Z,17.36
2022-10-24T19:46:19.853Z,17.33
2022-10-24T19:51:23.235Z,17.29
2022-10-24T19:56:30.503Z,17.20
2022-10-24T20:01:37.708Z,17.20
2022-10-24T20:06:43.250Z,17.19
2022-10-24T20:11:48.776Z,17.15
2022-10-24T20:16:54.310Z,17.16
2022-10-24T20:22:02.335Z,17.17
2022-10-24T20:32:12.792Z,17.94
2022-10-24T20:37:18.248Z,17.36
2022-10-24T20:42:23.644Z,17.21
2022-10-24T20:47:30.162Z,17.09
2022-10-24T20:52:36.089Z,17.04
2022-10-24T20:57:41.620Z,17.02
2022-10-24T21:02:47.690Z,17.04
2022-10-24T21:07:53.460Z,17.00
2022-10-24T21:12:59.068Z,17.01
2022-10-24T21:18:05.473Z,16.95
2022-10-24T21:23:10.992Z,16.87
2022-10-24T21:28:16.463Z,16.81
2022-10-24T21:33:21.861Z,16.77
2022-10-24T21:38:27.605Z,16.75
2022-10-24T21:43:35.388Z,16.73
2022-10-24T21:48:42.196Z,16.67
2022-10-24T21:53:50.551Z,16.64
2022-10-24T21:59:00.427Z,16.59
2022-10-24T22:04:07.103Z,16.56
2022-10-24T22:09:18.364Z,16.55
2022-10-24T22:14:23.955Z,16.52
2022-10-24T22:19:29.690Z,16.48
2022-10-24T22:24:35.094Z,16.41
2022-10-24T22:29:40.800Z,16.36
2022-10-24T22:34:46.709Z,16.32
2022-10-24T22:39:52.793Z,16.27
2022-10-24T22:44:58.996Z,16.23
2022-10-24T22:50:22.312Z,16.23
2022-10-24T22:55:37.084Z,16.24
2022-10-24T23:00:43.000Z,16.19
2022-10-24T23:06:09.875Z,16.18
2022-10-24T23:11:15.971Z,16.19
2022-10-24T23:16:31.001Z,16.16
2022-10-24T23:21:39.449Z,16.13
2022-10-24T23:26:53.889Z,16.06
2022-10-24T23:32:00.312Z,16.03
2022-10-24T23:37:06.906Z,15.99
2022-10-24T23:42:13.192Z,15.96
2022-10-24T23:53:06.703Z,15.92
2022-10-24T23:58:14.881Z,15.86
